createdAt,value
2017-11-29T00:00:52.538Z,6.6
2017-11-29T00:02:02.544Z,6.65
2017-11-29T00:03:12.300Z,6.64
2017-11-29T00:04:21.792Z,6.7
2017-11-29T00:05:31.860Z,6.64
2017-11-29T00:06:41.872Z,6.73
2017-11-29T00:07:51.899Z,6.64
2017-11-29T00:09:01.908Z,6.6
2017-11-29T00:10:11.122Z,6.82
2017-11-29T00:11:20.619Z,6.8
2017-11-29T00:12:30.653Z,6.85
2017-11-29T00:13:39.880Z,6.8
2017-11-29T00:14:49.919Z,6.79
2017-11-29T00:15:59.684Z,6.8
2017-11-29T00:17:09.717Z,6.76
2017-11-29T00:18:19.469Z,6.72
2017-11-29T00:19:29.513Z,6.67
2017-11-29T00:20:39.271Z,6.79
2017-11-29T00:21:49.031Z,6.79
2017-11-29T00:22:58.789Z,6.9
2017-11-29T00:24:08.801Z,6.83
2017-11-29T00:25:18.811Z,6.85
2017-11-29T00:26:28.889Z,6.88
2017-11-29T00:27:38.633Z,6.82
2017-11-29T00:28:48.413Z,6.75
2017-11-29T00:29:58.420Z,6.78
2017-11-29T00:31:07.925Z,6.76
2017-11-29T00:32:17.710Z,6.73
2017-11-29T00:33:27.464Z,6.76
2017-11-29T00:34:37.214Z,6.64
2017-11-29T00:35:47.231Z,6.67
2017-11-29T00:36:56.973Z,6.78
2017-11-29T00:38:06.198Z,6.72
2017-11-29T00:39:16.226Z,6.68
2017-11-29T00:40:26.278Z,6.68
2017-11-29T00:41:36.295Z,6.68
2017-11-29T00:42:46.054Z,6.67
2017-11-29T00:43:55.808Z,6.64
2017-11-29T00:45:05.285Z,6.67
2017-11-29T00:46:15.036Z,6.67
2017-11-29T00:47:25.046Z,6.68
2017-11-29T00:48:34.804Z,6.7
2017-11-29T00:49:44.842Z,6.65
2017-11-29T00:50:54.848Z,6.7
2017-11-29T00:52:04.587Z,6.62
2017-11-29T00:53:14.601Z,6.68
2017-11-29T00:54:24.351Z,6.73
2017-11-29T00:55:34.378Z,6.75
2017-11-29T00:56:44.417Z,6.72
2017-11-29T00:57:54.159Z,6.79
2017-11-29T00:59:04.265Z,6.8
2017-11-29T01:00:14.288Z,6.82
2017-11-29T01:01:24.034Z,6.76
2017-11-29T01:02:34.286Z,6.79
2017-11-29T01:03:44.296Z,6.76
2017-11-29T01:04:54.325Z,6.79
2017-11-29T01:06:04.075Z,6.79
2017-11-29T01:07:13.361Z,6.85
2017-11-29T01:08:23.363Z,6.82
2017-11-29T01:09:33.111Z,6.82
2017-11-29T01:10:43.132Z,6.78
2017-11-29T01:11:53.129Z,6.79
2017-11-29T01:13:03.121Z,6.91
2017-11-29T01:14:13.144Z,6.83
2017-11-29T01:15:23.139Z,6.83
2017-11-29T01:16:33.160Z,6.91
2017-11-29T01:17:42.984Z,6.94
2017-11-29T01:18:53.048Z,7.01
2017-11-29T01:20:02.804Z,6.97
2017-11-29T01:21:12.825Z,6.97
2017-11-29T01:22:22.844Z,6.83
2017-11-29T01:23:32.978Z,6.91
2017-11-29T01:24:42.722Z,6.91
2017-11-29T01:25:52.225Z,6.9
2017-11-29T01:27:01.967Z,6.88
2017-11-29T01:28:11.707Z,6.98
2017-11-29T01:29:20.944Z,6.98
2017-11-29T01:30:30.952Z,6.9
2017-11-29T01:31:40.448Z,6.93
2017-11-29T01:32:50.201Z,6.91
2017-11-29T01:34:00.214Z,6.93
2017-11-29T01:35:09.952Z,6.97
2017-11-29T01:36:19.746Z,6.98
2017-11-29T01:37:29.843Z,7.01
2017-11-29T01:38:39.651Z,7
2017-11-29T01:39:49.200Z,6.97
2017-11-29T01:40:59.293Z,6.98
2017-11-29T01:42:09.109Z,7
2017-11-29T01:43:19.206Z,6.86
2017-11-29T01:44:29.338Z,6.93
2017-11-29T01:45:38.869Z,6.94
2017-11-29T01:46:48.931Z,6.97
2017-11-29T01:47:58.990Z,6.94
2017-11-29T01:49:08.806Z,6.95
2017-11-29T01:50:18.939Z,6.93
2017-11-29T01:51:28.748Z,7
2017-11-29T01:52:38.815Z,7
2017-11-29T01:53:48.887Z,6.97
2017-11-29T01:54:58.753Z,6.98
2017-11-29T01:56:08.602Z,6.98
2017-11-29T01:57:18.681Z,6.98
2017-11-29T01:58:28.499Z,7.03
2017-11-29T01:59:38.322Z,7.11
2017-11-29T02:00:47.597Z,7.03
2017-11-29T02:01:57.139Z,7.09
2017-11-29T02:03:07.227Z,7
2017-11-29T02:04:17.042Z,7
2017-11-29T02:05:27.103Z,7.05
2017-11-29T02:06:36.924Z,7.01
2017-11-29T02:07:47.002Z,7.04
2017-11-29T02:08:56.539Z,7.04
2017-11-29T02:10:06.353Z,7.01
2017-11-29T02:11:16.180Z,7.11
2017-11-29T02:12:26.258Z,7.05
2017-11-29T02:13:36.117Z,7.01
2017-11-29T02:14:45.922Z,7
2017-11-29T02:15:55.475Z,7.11
2017-11-29T02:17:05.539Z,7
2017-11-29T02:18:15.364Z,6.98
2017-11-29T02:19:24.952Z,6.98
2017-11-29T02:20:35.041Z,6.98
2017-11-29T02:21:44.848Z,7.08
2017-11-29T02:22:54.401Z,7.04
2017-11-29T02:24:04.708Z,6.97
2017-11-29T02:25:14.830Z,6.91
2017-11-29T02:26:24.641Z,6.8
2017-11-29T02:27:34.437Z,6.79
2017-11-29T02:28:44.023Z,6.73
2017-11-29T02:29:54.100Z,6.65
2017-11-29T02:31:04.233Z,6.54
2017-11-29T02:32:14.314Z,6.58
2017-11-29T02:33:24.413Z,6.55
2017-11-29T02:34:34.485Z,6.51
2017-11-29T02:35:44.596Z,6.51
2017-11-29T02:36:54.675Z,6.47
2017-11-29T02:38:04.218Z,6.44
2017-11-29T02:39:14.276Z,6.46
2017-11-29T02:40:24.406Z,6.49
2017-11-29T02:41:34.222Z,6.46
2017-11-29T02:42:44.361Z,6.44
2017-11-29T02:43:54.185Z,6.37
2017-11-29T02:45:04.013Z,6.31
2017-11-29T02:46:13.829Z,6.4
2017-11-29T02:47:23.917Z,6.37
2017-11-29T02:48:33.455Z,6.37
2017-11-29T02:49:43.252Z,6.28
2017-11-29T02:50:52.792Z,6.34
2017-11-29T02:52:02.879Z,6.31
2017-11-29T02:53:12.951Z,6.25
2017-11-29T02:54:23.106Z,6.28
2017-11-29T02:55:33.246Z,6.29
2017-11-29T02:56:43.049Z,6.26
2017-11-29T02:57:53.189Z,6.29
2017-11-29T02:59:02.986Z,6.29
2017-11-29T03:00:12.790Z,6.24
2017-11-29T03:01:22.863Z,6.31
2017-11-29T03:02:32.680Z,6.28
2017-11-29T03:33:49.447Z,3.13
2017-11-29T03:34:59.533Z,3.08
2017-11-29T03:36:09.616Z,3.06
2017-11-29T03:37:19.684Z,3.13
2017-11-29T03:38:29.209Z,3.13
2017-11-29T03:39:39.034Z,3.26
2017-11-29T03:40:48.842Z,3.35
2017-11-29T03:41:58.649Z,3.48
2017-11-29T03:43:08.192Z,3.66
2017-11-29T03:44:18.659Z,3.85
2017-11-29T03:45:28.514Z,3.94
2017-11-29T03:46:38.598Z,4.07
2017-11-29T03:47:48.398Z,4.24
2017-11-29T03:48:58.464Z,4.29
2017-11-29T03:50:08.534Z,4.4
2017-11-29T03:51:18.652Z,4.58
2017-11-29T03:52:28.721Z,4.66
2017-11-29T03:53:38.556Z,4.75
2017-11-29T03:54:48.607Z,4.83
2017-11-29T03:55:58.679Z,5
2017-11-29T03:57:08.549Z,5.09
2017-11-29T03:58:18.616Z,5.24
2017-11-29T03:59:28.687Z,5.21
2017-11-29T04:00:38.233Z,5.3
2017-11-29T04:01:48.312Z,5.41
2017-11-29T04:02:59.795Z,5.45
2017-11-29T04:04:09.351Z,5.46
2017-11-29T04:05:19.406Z,5.48
2017-11-29T04:06:29.221Z,5.57
2017-11-29T04:07:39.299Z,5.66
2017-11-29T04:08:49.375Z,5.66
2017-11-29T04:09:59.471Z,5.6
2017-11-29T04:11:09.555Z,5.62
2017-11-29T04:12:19.638Z,5.75
2017-11-29T04:13:29.737Z,5.7
2017-11-29T04:14:39.584Z,5.78
2017-11-29T04:15:49.642Z,5.73
2017-11-29T04:16:59.729Z,5.82
2017-11-29T04:18:09.804Z,5.81
2017-11-29T04:19:19.628Z,5.91
2017-11-29T04:20:29.764Z,5.8
2017-11-29T04:21:39.569Z,5.91
2017-11-29T04:22:49.417Z,5.82
2017-11-29T04:23:59.497Z,5.92
2017-11-29T04:25:09.324Z,5.99
2017-11-29T04:26:18.925Z,5.88
2017-11-29T04:27:28.729Z,6.03
2017-11-29T04:28:38.805Z,6.05
2017-11-29T04:29:48.602Z,5.92
2017-11-29T04:30:58.679Z,6.02
2017-11-29T04:32:08.756Z,6
2017-11-29T04:33:18.568Z,6
2017-11-29T04:34:28.653Z,5.99
2017-11-29T04:35:38.470Z,5.88
2017-11-29T04:36:48.551Z,6
2017-11-29T04:37:57.875Z,6
2017-11-29T04:39:07.982Z,5.96
2017-11-29T04:40:18.194Z,6.03
2017-11-29T04:41:27.995Z,5.92
2017-11-29T04:42:38.067Z,6.03
2017-11-29T04:43:47.915Z,5.99
2017-11-29T04:44:58.007Z,6.14
2017-11-29T04:46:07.807Z,6.17
2017-11-29T04:47:17.613Z,6.1
2017-11-29T04:48:27.426Z,6.09
2017-11-29T04:49:37.247Z,6.13
2017-11-29T04:50:46.803Z,6.1
2017-11-29T04:51:56.360Z,6.07
2017-11-29T04:53:06.438Z,6.13
2017-11-29T04:54:16.284Z,6.13
2017-11-29T04:55:26.350Z,6.05
2017-11-29T04:56:36.437Z,6.06
2017-11-29T04:57:47.235Z,6.09
2017-11-29T04:58:57.028Z,6.1
2017-11-29T05:00:07.114Z,6.06
2017-11-29T05:01:17.298Z,6.09
2017-11-29T05:02:27.097Z,6.13
2017-11-29T05:03:37.175Z,6.15
2017-11-29T05:04:47.250Z,6.1
2017-11-29T05:05:56.796Z,6.21
2017-11-29T05:07:06.343Z,6.13
2017-11-29T05:08:16.417Z,6.06
2017-11-29T05:09:26.485Z,6.13
2017-11-29T05:10:36.554Z,6.21
2017-11-29T05:11:46.656Z,6.17
2017-11-29T05:12:56.486Z,6.13
2017-11-29T05:14:06.512Z,6.09
2017-11-29T05:15:16.327Z,6.13
2017-11-29T05:16:26.415Z,5.96
2017-11-29T05:17:36.485Z,6.09
2017-11-29T05:18:46.657Z,6.03
2017-11-29T05:19:56.452Z,5.99
2017-11-29T05:21:06.299Z,5.99
2017-11-29T05:22:16.099Z,6.1
2017-11-29T05:23:26.166Z,6.06
2017-11-29T05:24:36.237Z,5.99
2017-11-29T05:25:46.312Z,5.99
2017-11-29T05:26:56.417Z,6
2017-11-29T05:28:06.215Z,5.95
2017-11-29T05:29:15.493Z,5.91
2017-11-29T05:30:25.640Z,6.02
2017-11-29T05:31:35.440Z,5.99
2017-11-29T05:32:45.256Z,5.95
2017-11-29T05:33:55.057Z,5.99
2017-11-29T05:35:04.600Z,5.98
2017-11-29T05:36:14.205Z,5.84
2017-11-29T05:37:24.002Z,5.85
2017-11-29T05:38:34.079Z,5.85
2017-11-29T05:39:44.156Z,5.84
2017-11-29T05:40:54.228Z,5.84
2017-11-29T05:42:04.337Z,5.88
2017-11-29T05:43:14.431Z,5.87
2017-11-29T05:44:24.502Z,5.78
2017-11-29T05:45:34.328Z,5.89
2017-11-29T05:46:44.396Z,5.87
2017-11-29T05:47:54.259Z,5.88
2017-11-29T05:49:04.316Z,5.84
2017-11-29T05:50:14.442Z,5.87
2017-11-29T05:51:24.252Z,5.81
2017-11-29T05:52:34.357Z,5.81
2017-11-29T05:53:43.907Z,5.85
2017-11-29T05:54:53.726Z,5.84
2017-11-29T05:56:03.550Z,5.78
2017-11-29T05:57:14.564Z,5.75
2017-11-29T05:58:24.386Z,5.78
2017-11-29T05:59:34.455Z,5.8
2017-11-29T06:00:45.419Z,5.77
2017-11-29T06:01:55.221Z,5.73
2017-11-29T06:03:05.313Z,5.81
2017-11-29T06:04:15.393Z,5.72
2017-11-29T06:05:25.288Z,5.77
2017-11-29T06:06:35.372Z,5.69
2017-11-29T06:07:45.454Z,5.62
2017-11-29T06:08:55.274Z,5.66
2017-11-29T06:10:05.383Z,5.64
2017-11-29T06:11:15.497Z,5.64
2017-11-29T06:12:25.306Z,5.64
2017-11-29T06:13:35.380Z,5.69
2017-11-29T06:14:45.445Z,5.73
2017-11-29T06:15:55.249Z,5.59
2017-11-29T06:17:05.390Z,5.67
2017-11-29T06:18:15.467Z,5.55
2017-11-29T06:19:25.276Z,5.54
2017-11-29T06:20:35.105Z,5.64
2017-11-29T06:21:44.648Z,5.62
2017-11-29T06:22:54.718Z,5.67
2017-11-29T06:24:04.787Z,5.62
2017-11-29T06:25:14.605Z,5.57
2017-11-29T06:26:24.939Z,5.7
2017-11-29T06:27:34.800Z,5.64
2017-11-29T06:28:44.719Z,5.67
2017-11-29T06:29:54.542Z,5.72
2017-11-29T06:31:04.614Z,5.77
2017-11-29T06:32:14.696Z,5.62
2017-11-29T06:33:24.767Z,5.77
2017-11-29T06:34:34.047Z,5.78
2017-11-29T06:35:44.121Z,5.8
2017-11-29T06:36:53.642Z,5.81
2017-11-29T06:38:03.453Z,5.81
2017-11-29T06:39:13.013Z,5.78
2017-11-29T06:40:22.828Z,5.78
2017-11-29T06:41:33.184Z,5.82
2017-11-29T06:42:43.248Z,5.81
2017-11-29T06:43:53.319Z,5.85
2017-11-29T06:45:03.403Z,5.82
2017-11-29T06:46:13.515Z,5.98
2017-11-29T06:47:23.320Z,5.87
2017-11-29T06:48:33.170Z,5.91
2017-11-29T06:49:42.991Z,5.81
2017-11-29T06:50:53.123Z,5.81
2017-11-29T06:52:03.262Z,5.82
2017-11-29T06:53:13.356Z,5.81
2017-11-29T06:54:23.163Z,5.85
2017-11-29T06:55:33.257Z,5.87
2017-11-29T06:56:43.332Z,5.8
2017-11-29T06:57:52.863Z,5.82
2017-11-29T06:59:02.953Z,5.85
2017-11-29T07:00:12.786Z,5.87
2017-11-29T07:01:22.878Z,5.91
2017-11-29T07:02:32.690Z,5.88
2017-11-29T07:03:42.494Z,5.81
2017-11-29T07:04:52.569Z,5.89
2017-11-29T07:06:02.656Z,5.81
2017-11-29T07:07:12.718Z,5.92
2017-11-29T07:08:22.795Z,5.85
2017-11-29T07:09:32.882Z,5.85
2017-11-29T07:10:42.970Z,5.87
2017-11-29T07:11:53.025Z,5.82
2017-11-29T07:13:03.091Z,5.92
2017-11-29T07:14:12.909Z,5.91
2017-11-29T07:15:22.712Z,5.84
2017-11-29T07:16:32.521Z,5.8
2017-11-29T07:17:42.660Z,5.85
2017-11-29T07:18:52.465Z,5.87
2017-11-29T07:20:02.301Z,5.96
2017-11-29T07:21:12.374Z,5.89
2017-11-29T07:22:22.469Z,5.84
2017-11-29T07:23:32.275Z,5.92
2017-11-29T07:24:42.144Z,6.02
2017-11-29T07:25:51.959Z,6.05
2017-11-29T07:27:01.782Z,6.13
2017-11-29T07:28:11.864Z,6.21
2017-11-29T07:29:21.951Z,6.18
2017-11-29T07:30:32.017Z,6.14
2017-11-29T07:31:41.597Z,6.21
2017-11-29T07:32:51.700Z,6.2
2017-11-29T07:34:01.778Z,6.26
2017-11-29T07:35:11.858Z,6.26
2017-11-29T07:36:22.004Z,6.18
2017-11-29T07:37:31.546Z,6.2
2017-11-29T07:38:41.098Z,6.21
2017-11-29T07:39:51.197Z,6.18
2017-11-29T07:41:01.009Z,6.29
2017-11-29T07:42:10.834Z,6.15
2017-11-29T07:43:20.377Z,6.17
2017-11-29T07:44:30.173Z,6.2
2017-11-29T07:45:39.977Z,6.26
2017-11-29T07:46:50.043Z,6.29
2017-11-29T07:47:59.604Z,6.29
2017-11-29T07:49:09.686Z,6.26
2017-11-29T07:50:19.768Z,6.28
2017-11-29T07:51:29.304Z,6.28
2017-11-29T07:52:39.393Z,6.37
2017-11-29T07:53:49.189Z,6.31
2017-11-29T07:54:58.721Z,6.39
2017-11-29T07:56:08.650Z,6.36
2017-11-29T07:57:18.463Z,6.42
2017-11-29T07:58:28.541Z,6.42
2017-11-29T07:59:38.082Z,6.44
2017-11-29T08:00:47.914Z,6.51
2017-11-29T08:01:57.999Z,6.58
2017-11-29T08:03:08.091Z,6.51
2017-11-29T08:04:17.898Z,6.64
2017-11-29T08:05:27.966Z,6.67
2017-11-29T08:06:37.788Z,6.62
2017-11-29T08:07:47.646Z,6.79
2017-11-29T08:08:57.450Z,6.8
2017-11-29T08:10:08.048Z,6.83
2017-11-29T08:11:18.145Z,6.9
2017-11-29T08:12:28.210Z,6.9
2017-11-29T08:13:38.347Z,6.94
2017-11-29T08:14:48.443Z,6.94
2017-11-29T08:15:58.526Z,6.97
2017-11-29T08:17:07.801Z,6.97
2017-11-29T08:18:17.610Z,6.97
2017-11-29T08:19:27.682Z,7.05
2017-11-29T08:20:37.761Z,7.26
2017-11-29T08:21:47.840Z,7.21
2017-11-29T08:22:57.902Z,7.34
2017-11-29T08:24:07.972Z,7.51
2017-11-29T08:25:17.792Z,7.56
2017-11-29T08:26:27.877Z,7.77
2017-11-29T08:27:37.940Z,7.83
2017-11-29T08:28:48.096Z,7.83
2017-11-29T08:29:58.169Z,7.75
2017-11-29T08:31:08.256Z,7.73
2017-11-29T08:32:18.078Z,7.71
2017-11-29T08:33:27.919Z,7.59
2017-11-29T08:34:38.055Z,7.58
2017-11-29T08:35:47.857Z,7.59
2017-11-29T08:36:57.670Z,7.59
2017-11-29T08:38:07.477Z,7.64
2017-11-29T08:39:17.283Z,7.59
2017-11-29T08:40:27.363Z,7.61
2017-11-29T08:41:37.173Z,7.61
2017-11-29T08:42:46.980Z,7.59
2017-11-29T08:43:57.060Z,7.64
2017-11-29T08:45:07.157Z,7.59
2017-11-29T08:46:17.240Z,7.68
2017-11-29T08:47:26.788Z,7.75
2017-11-29T08:48:36.870Z,7.82
2017-11-29T08:49:46.673Z,7.88
2017-11-29T08:50:56.738Z,7.93
2017-11-29T08:52:06.618Z,7.92
2017-11-29T08:53:16.428Z,7.91
2017-11-29T08:54:26.496Z,7.88
2017-11-29T08:55:36.562Z,7.91
2017-11-29T08:56:46.637Z,7.91
2017-11-29T08:57:56.774Z,7.85
2017-11-29T08:59:06.312Z,7.93
2017-11-29T09:00:17.005Z,7.77
2017-11-29T09:01:27.091Z,7.91
2017-11-29T09:02:36.906Z,7.8
2017-11-29T09:03:46.989Z,7.77
2017-11-29T09:04:57.057Z,7.64
2017-11-29T09:06:06.880Z,7.61
2017-11-29T09:07:16.738Z,7.59
2017-11-29T09:08:26.842Z,7.61
2017-11-29T09:09:36.990Z,7.64
2017-11-29T09:10:47.067Z,7.71
2017-11-29T09:11:56.646Z,7.78
2017-11-29T09:13:06.179Z,7.75
2017-11-29T09:14:16.235Z,7.78
2017-11-29T09:15:26.358Z,7.77
2017-11-29T09:16:36.428Z,7.64
2017-11-29T09:17:46.247Z,7.55
2017-11-29T09:18:56.073Z,7.45
2017-11-29T09:20:05.869Z,7.51
2017-11-29T09:21:15.695Z,7.49
2017-11-29T09:22:25.757Z,7.54
2017-11-29T09:23:35.894Z,7.64
2017-11-29T09:24:46.006Z,7.71
2017-11-29T09:25:56.089Z,7.73
2017-11-29T09:27:06.179Z,7.77
2017-11-29T09:28:15.459Z,7.89
2017-11-29T09:29:25.537Z,7.88
2017-11-29T09:30:35.377Z,7.91
2017-11-29T09:31:45.452Z,7.93
2017-11-29T09:32:55.263Z,7.89
2017-11-29T09:34:05.073Z,7.96
2017-11-29T09:35:14.878Z,7.83
2017-11-29T09:36:24.432Z,7.93
2017-11-29T09:37:34.523Z,7.92
2017-11-29T09:38:44.592Z,7.83
2017-11-29T09:39:54.687Z,7.88
2017-11-29T09:41:04.761Z,7.86
2017-11-29T09:42:14.612Z,7.89
2017-11-29T09:43:24.417Z,7.92
2017-11-29T09:44:34.513Z,7.92
2017-11-29T09:45:44.572Z,8.06
2017-11-29T09:46:54.109Z,8.13
2017-11-29T09:48:03.917Z,8.17
2017-11-29T09:49:14.011Z,8.24
2017-11-29T09:50:23.804Z,8.19
2017-11-29T09:51:33.902Z,8.4
2017-11-29T09:52:44.017Z,8.49
2017-11-29T09:53:54.084Z,8.49
2017-11-29T09:55:03.899Z,8.44
2017-11-29T09:56:13.985Z,8.43
2017-11-29T09:57:24.097Z,8.44
2017-11-29T09:58:33.974Z,8.4
2017-11-29T09:59:43.845Z,8.22
2017-11-29T10:00:53.410Z,8.17
2017-11-29T10:02:03.487Z,8.19
2017-11-29T10:03:12.773Z,8.25
2017-11-29T10:04:22.855Z,8.17
2017-11-29T10:05:32.954Z,8.17
2017-11-29T10:06:42.823Z,8.24
2017-11-29T10:07:52.387Z,8.26
2017-11-29T10:09:01.696Z,8.49
2017-11-29T10:10:10.983Z,8.46
2017-11-29T10:11:20.576Z,8.61
2017-11-29T10:12:30.412Z,8.8
2017-11-29T10:13:40.249Z,8.89
2017-11-29T10:14:50.065Z,8.97
2017-11-29T10:15:59.337Z,9.01
2017-11-29T10:17:09.201Z,8.89
2017-11-29T10:18:19.295Z,8.9
2017-11-29T10:19:29.142Z,8.82
2017-11-29T10:20:38.940Z,8.68
2017-11-29T10:21:49.012Z,8.57
2017-11-29T10:23:00.130Z,8.35
2017-11-29T10:24:09.950Z,8.31
2017-11-29T10:25:19.758Z,8.11
2017-11-29T10:26:29.859Z,8.04
2017-11-29T10:27:39.674Z,8.07
2017-11-29T10:28:49.757Z,7.98
2017-11-29T10:29:59.863Z,7.89
2017-11-29T10:31:09.944Z,7.85
2017-11-29T10:32:20.023Z,7.85
2017-11-29T10:33:29.297Z,7.82
2017-11-29T10:34:39.426Z,7.86
2017-11-29T10:35:49.517Z,7.89
2017-11-29T10:36:59.607Z,8.06
2017-11-29T10:38:09.726Z,8.09
2017-11-29T10:39:20.047Z,7.98
2017-11-29T10:40:29.856Z,8.03
2017-11-29T10:41:39.410Z,8.11
2017-11-29T10:42:49.233Z,8.19
2017-11-29T10:43:59.040Z,8.4
2017-11-29T10:45:08.879Z,8.42
2017-11-29T10:46:19.017Z,8.43
2017-11-29T10:47:29.102Z,8.58
2017-11-29T10:48:39.189Z,8.46
2017-11-29T10:49:49.283Z,8.49
2017-11-29T10:50:59.109Z,8.4
2017-11-29T10:52:08.638Z,8.31
2017-11-29T10:53:18.736Z,8.35
2017-11-29T10:54:29.120Z,8.34
2017-11-29T10:55:39.188Z,8.34
2017-11-29T10:56:49.264Z,8.4
2017-11-29T10:57:59.332Z,8.34
2017-11-29T10:59:09.436Z,8.34
2017-11-29T11:00:19.255Z,8.36
2017-11-29T11:01:29.063Z,8.44
2017-11-29T11:02:39.164Z,8.31
2017-11-29T11:03:49.310Z,8.32
2017-11-29T11:04:59.132Z,8.32
2017-11-29T11:06:09.207Z,8.26
2017-11-29T11:07:19.009Z,8.34
2017-11-29T11:08:28.819Z,8.49
2017-11-29T11:09:38.421Z,8.5
2017-11-29T11:10:48.118Z,8.44
2017-11-29T11:11:58.005Z,8.6
2017-11-29T11:13:07.806Z,8.72
2017-11-29T11:14:17.908Z,8.74
2017-11-29T11:15:28.618Z,8.83
2017-11-29T11:16:38.727Z,8.79
2017-11-29T11:17:48.697Z,8.65
2017-11-29T11:18:58.772Z,8.71
2017-11-29T11:20:08.578Z,8.71
2017-11-29T11:21:18.449Z,8.76
2017-11-29T11:22:28.541Z,8.82
2017-11-29T11:23:38.349Z,8.71
2017-11-29T11:24:48.158Z,8.82
2017-11-29T11:25:57.981Z,8.71
2017-11-29T11:27:07.603Z,8.74
2017-11-29T11:28:17.431Z,8.72
2017-11-29T11:29:27.249Z,8.83
2017-11-29T11:30:37.074Z,8.61
2017-11-29T11:31:47.156Z,8.53
2017-11-29T11:32:58.245Z,8.44
2017-11-29T11:34:08.070Z,8.5
2017-11-29T11:35:18.144Z,8.31
2017-11-29T11:36:28.265Z,8.26
2017-11-29T11:37:38.445Z,8.17
2017-11-29T11:38:48.240Z,8.22
2017-11-29T11:39:58.356Z,8.14
2017-11-29T11:41:08.568Z,8.14
2017-11-29T11:42:18.441Z,8.04
2017-11-29T11:43:28.608Z,8.07
2017-11-29T11:44:38.559Z,8.04
2017-11-29T11:45:48.703Z,7.99
2017-11-29T11:46:58.854Z,8.17
2017-11-29T11:48:08.685Z,8.22
2017-11-29T11:49:18.781Z,8.32
2017-11-29T11:50:28.964Z,8.46
2017-11-29T11:51:39.049Z,8.61
2017-11-29T11:52:50.224Z,8.79
2017-11-29T11:54:00.032Z,8.89
2017-11-29T11:55:10.108Z,8.95
2017-11-29T11:56:19.716Z,9.16
2017-11-29T11:57:29.775Z,9.19
2017-11-29T11:58:39.609Z,9.21
2017-11-29T11:59:49.167Z,9.21
2017-11-29T12:00:59.255Z,9.29
2017-11-29T12:02:09.350Z,9.24
2017-11-29T12:03:19.153Z,9.53
2017-11-29T12:04:28.755Z,9.45
2017-11-29T12:05:38.569Z,9.55
2017-11-29T12:06:48.209Z,9.42
2017-11-29T12:07:58.429Z,9.3
2017-11-29T12:09:08.078Z,9.29
2017-11-29T12:10:18.260Z,9.21
2017-11-29T12:11:28.459Z,9.23
2017-11-29T12:12:38.327Z,9.03
2017-11-29T12:13:48.560Z,8.97
2017-11-29T12:14:58.655Z,8.74
2017-11-29T12:16:08.530Z,8.62
2017-11-29T12:17:18.706Z,8.57
2017-11-29T12:18:28.772Z,8.47
2017-11-29T12:19:38.936Z,8.57
2017-11-29T12:20:48.915Z,8.57
2017-11-29T12:21:59.218Z,8.58
2017-11-29T12:23:09.334Z,8.6
2017-11-29T12:24:18.871Z,8.46
2017-11-29T12:25:29.004Z,8.6
2017-11-29T12:26:38.843Z,8.52
2017-11-29T12:27:48.729Z,8.6
2017-11-29T12:28:58.827Z,8.6
2017-11-29T12:30:08.905Z,8.6
2017-11-29T12:31:18.776Z,8.67
2017-11-29T12:32:28.612Z,8.76
2017-11-29T12:33:38.460Z,8.74
2017-11-29T12:34:48.311Z,8.71
2017-11-29T12:35:58.424Z,8.64
2017-11-29T12:37:08.312Z,8.49
2017-11-29T12:38:18.199Z,8.36
2017-11-29T12:39:28.426Z,8.26
2017-11-29T12:40:38.519Z,8.14
2017-11-29T12:41:48.605Z,8.04
2017-11-29T12:42:58.737Z,7.99
2017-11-29T12:44:08.289Z,8.01
2017-11-29T12:45:18.367Z,7.92
2017-11-29T12:46:28.447Z,8.03
2017-11-29T12:47:38.526Z,8.06
2017-11-29T12:48:48.384Z,7.93
2017-11-29T12:49:59.114Z,7.86
2017-11-29T12:51:08.917Z,7.98
2017-11-29T12:52:18.722Z,7.96
2017-11-29T12:53:28.519Z,7.92
2017-11-29T12:54:38.613Z,8.06
2017-11-29T12:55:48.423Z,7.98
2017-11-29T12:56:57.969Z,7.98
2017-11-29T12:58:08.038Z,7.91
2017-11-29T12:59:18.174Z,7.85
2017-11-29T13:00:28.316Z,7.98
2017-11-29T13:01:39.075Z,7.96
2017-11-29T13:02:49.178Z,7.99
2017-11-29T13:03:59.269Z,7.98
2017-11-29T13:05:09.068Z,8.04
2017-11-29T13:06:19.139Z,8.03
2017-11-29T13:07:28.714Z,8.09
2017-11-29T13:08:38.807Z,8.03
2017-11-29T13:09:49.000Z,8.03
2017-11-29T13:11:00.075Z,7.98
2017-11-29T13:12:10.191Z,7.95
2017-11-29T13:13:20.279Z,8.13
2017-11-29T13:14:30.133Z,8.22
2017-11-29T13:15:39.978Z,8.35
2017-11-29T13:16:50.078Z,8.24
2017-11-29T13:18:00.171Z,8.29
2017-11-29T13:19:09.971Z,8.32
2017-11-29T13:20:20.068Z,8.35
2017-11-29T13:21:30.172Z,8.32
2017-11-29T13:22:40.266Z,8.34
2017-11-29T13:23:50.410Z,8.31
2017-11-29T13:25:00.223Z,8.28
2017-11-29T13:26:10.035Z,8.22
2017-11-29T13:27:21.006Z,8.14
2017-11-29T13:28:31.086Z,8.14
2017-11-29T13:29:40.890Z,8.14
2017-11-29T13:30:51.526Z,8.16
2017-11-29T13:32:01.362Z,8.25
2017-11-29T13:33:11.503Z,8.31
2017-11-29T13:34:21.318Z,8.42
2017-11-29T13:35:32.259Z,8.25
2017-11-29T13:36:42.084Z,8.21
2017-11-29T13:37:52.165Z,8.24
2017-11-29T13:39:01.991Z,8.21
2017-11-29T13:40:12.072Z,8.14
2017-11-29T13:41:22.223Z,8.13
2017-11-29T13:42:32.308Z,8.04
2017-11-29T13:43:42.133Z,8.03
2017-11-29T13:44:51.930Z,7.96
2017-11-29T13:46:02.422Z,7.99
2017-11-29T13:47:17.259Z,8.01
2017-11-29T13:48:35.636Z,8.04
2017-11-29T13:49:51.335Z,7.89
2017-11-29T13:51:06.828Z,7.93
2017-11-29T13:52:22.900Z,7.91
2017-11-29T13:53:35.807Z,8.01
2017-11-29T13:54:47.860Z,7.98
2017-11-29T13:55:58.163Z,8.17
2017-11-29T13:57:08.549Z,8.16
2017-11-29T13:58:19.613Z,8.13
2017-11-29T13:59:29.693Z,8.09
2017-11-29T14:00:39.757Z,8.07
2017-11-29T14:01:49.587Z,8.01
2017-11-29T14:02:59.742Z,8.06
2017-11-29T14:04:10.402Z,7.99
2017-11-29T14:05:21.240Z,8.07
2017-11-29T14:06:33.232Z,7.91
2017-11-29T14:07:44.554Z,7.98
2017-11-29T14:08:55.817Z,7.91
2017-11-29T14:10:07.309Z,7.89
2017-11-29T14:11:18.989Z,7.96
2017-11-29T14:12:31.057Z,7.88
2017-11-29T14:13:42.648Z,7.88
2017-11-29T14:14:53.444Z,7.89
2017-11-29T14:16:05.011Z,7.82
2017-11-29T14:17:16.283Z,7.89
2017-11-29T14:18:27.537Z,7.89
2017-11-29T14:19:40.106Z,7.83
2017-11-29T14:20:52.364Z,7.85
2017-11-29T14:22:04.253Z,7.83
2017-11-29T14:23:16.340Z,7.85
2017-11-29T14:24:28.304Z,7.82
2017-11-29T14:25:40.910Z,7.82
2017-11-29T14:26:52.276Z,7.78
2017-11-29T14:28:03.817Z,7.78
2017-11-29T14:29:14.567Z,7.8
2017-11-29T14:30:24.707Z,7.73
2017-11-29T14:31:34.644Z,7.71
2017-11-29T14:32:44.561Z,7.74
2017-11-29T14:33:54.795Z,7.74
2017-11-29T14:35:04.920Z,7.75
2017-11-29T14:36:15.053Z,7.71
2017-11-29T14:37:25.154Z,7.8
2017-11-29T14:38:35.008Z,7.68
2017-11-29T14:39:44.823Z,7.73
2017-11-29T14:40:54.970Z,7.74
2017-11-29T14:42:05.169Z,7.73
2017-11-29T14:43:15.375Z,7.7
2017-11-29T14:44:25.311Z,7.61
2017-11-29T14:45:35.529Z,7.52
2017-11-29T14:46:45.718Z,7.52
2017-11-29T14:47:56.147Z,7.55
2017-11-29T14:49:06.299Z,7.56
2017-11-29T14:50:16.472Z,7.59
2017-11-29T14:51:26.608Z,7.54
2017-11-29T14:52:37.247Z,7.55
2017-11-29T14:53:49.480Z,7.56
2017-11-29T14:55:01.570Z,7.67
2017-11-29T14:56:13.164Z,7.61
2017-11-29T14:57:25.217Z,7.64
2017-11-29T14:58:36.866Z,7.54
2017-11-29T14:59:47.084Z,7.64
2017-11-29T15:00:57.044Z,7.55
2017-11-29T15:02:09.206Z,7.49
2017-11-29T15:03:21.512Z,7.54
2017-11-29T15:04:33.835Z,7.48
2017-11-29T15:05:47.156Z,7.39
2017-11-29T15:06:59.523Z,7.47
2017-11-29T15:08:10.470Z,7.47
2017-11-29T15:09:20.801Z,7.48
2017-11-29T15:10:30.556Z,7.39
2017-11-29T15:11:40.164Z,7.4
2017-11-29T15:12:50.611Z,7.36
2017-11-29T15:14:01.459Z,7.4
2017-11-29T15:15:12.921Z,7.4
2017-11-29T15:16:23.509Z,7.36
2017-11-29T15:17:34.851Z,7.31
2017-11-29T15:18:45.757Z,7.26
2017-11-29T15:19:57.546Z,7.3
2017-11-29T15:21:07.929Z,7.23
2017-11-29T15:22:18.998Z,7.21
2017-11-29T15:23:30.385Z,7.23
2017-11-29T15:24:42.584Z,7.18
2017-11-29T15:25:53.121Z,7.27
2017-11-29T15:27:05.131Z,7.18
2017-11-29T15:28:17.702Z,7.23
2017-11-29T15:29:28.793Z,7.21
2017-11-29T15:30:41.113Z,7.16
2017-11-29T15:31:52.446Z,7.09
2017-11-29T15:33:03.735Z,7.03
2017-11-29T15:34:16.160Z,7.03
2017-11-29T15:35:28.739Z,7.04
2017-11-29T15:36:41.667Z,6.97
2017-11-29T15:37:54.037Z,7.03
2017-11-29T15:39:06.363Z,7.01
2017-11-29T15:40:17.249Z,7.01
2017-11-29T15:41:29.545Z,7.03
2017-11-29T15:42:41.458Z,7.05
2017-11-29T15:43:53.234Z,7
2017-11-29T15:45:04.919Z,7.03
2017-11-29T15:46:16.942Z,6.95
2017-11-29T15:47:27.952Z,6.98
2017-11-29T15:48:38.966Z,7.05
2017-11-29T15:49:49.939Z,6.95
2017-11-29T15:51:00.203Z,7.04
2017-11-29T15:52:10.370Z,6.97
2017-11-29T15:53:20.569Z,7
2017-11-29T15:54:30.897Z,7
2017-11-29T15:55:41.358Z,6.97
2017-11-29T15:56:51.759Z,7.01
2017-11-29T15:58:03.533Z,6.97
2017-11-29T15:59:13.771Z,6.93
2017-11-29T16:00:26.411Z,7.05
2017-11-29T16:01:41.360Z,7.01
2017-11-29T16:02:55.137Z,6.97
2017-11-29T16:04:07.498Z,6.91
2017-11-29T16:05:20.136Z,7
2017-11-29T16:06:32.673Z,6.97
2017-11-29T16:07:45.231Z,7
2017-11-29T16:08:57.273Z,6.95